sensor_id;sensor_type;location;lat;lon;timestamp;temperature;humidity
57833;DHT22;43667;53.036;6.740;2022-09-09T00:04:39;14.00;99.90
57833;DHT22;43667;53.036;6.740;2022-09-09T00:07:17;14.00;99.90
57833;DHT22;43667;53.036;6.740;2022-09-09T00:15:18;13.90;99.90
57833;DHT22;43667;53.036;6.740;2022-09-09T00:20:21;13.80;99.90
57833;DHT22;43667;53.036;6.740;2022-09-09T00:26:34;13.80;99.90
57833;DHT22;43667;53.036;6.740;2022-09-09T00:29:12;13.80;99.90
57833;DHT22;43667;53.036;6.740;2022-09-09T00:31:40;13.70;99.90
57833;DHT22;43667;53.036;6.740;2022-09-09T00:34:13;13.70;99.90
57833;DHT22;43667;53.036;6.740;2022-09-09T00:36:40;13.70;99.90
57833;DHT22;43667;53.036;6.740;2022-09-09T00:39:13;13.70;99.90
57833;DHT22;43667;53.036;6.740;2022-09-09T00:44:36;13.70;99.90
57833;DHT22;43667;53.036;6.740;2022-09-09T00:47:20;13.60;99.90
57833;DHT22;43667;53.036;6.740;2022-09-09T00:50:13;13.60;99.90
57833;DHT22;43667;53.036;6.740;2022-09-09T00:52:57;13.60;99.90
57833;DHT22;43667;53.036;6.740;2022-09-09T00:55:54;13.50;99.90
57833;DHT22;43667;53.036;6.740;2022-09-09T00:58:23;13.50;99.90
57833;DHT22;43667;53.036;6.740;2022-09-09T01:01:04;13.50;99.90
57833;DHT22;43667;53.036;6.740;2022-09-09T01:03:38;13.50;99.90
57833;DHT22;43667;53.036;6.740;2022-09-09T01:09:05;13.50;99.90
57833;DHT22;43667;53.036;6.740;2022-09-09T01:17:12;13.40;99.90
57833;DHT22;43667;53.036;6.740;2022-09-09T01:26:01;13.40;99.90
57833;DHT22;43667;53.036;6.740;2022-09-09T01:28:29;13.40;99.90
57833;DHT22;43667;53.036;6.740;2022-09-09T01:30:57;13.30;99.90
57833;DHT22;43667;53.036;6.740;2022-09-09T01:33:24;13.30;99.90
57833;DHT22;43667;53.036;6.740;2022-09-09T01:35:57;13.30;99.90
57833;DHT22;43667;53.036;6.740;2022-09-09T01:38:26;13.30;99.90
57833;DHT22;43667;53.036;6.740;2022-09-09T01:40:53;13.30;99.90
57833;DHT22;43667;53.036;6.740;2022-09-09T01:43:20;13.30;99.90
57833;DHT22;43667;53.036;6.740;2022-09-09T01:45:48;13.30;99.90
57833;DHT22;43667;53.036;6.740;2022-09-09T01:48:14;13.30;99.90
57833;DHT22;43667;53.036;6.740;2022-09-09T01:50:40;13.30;99.90
57833;DHT22;43667;53.036;6.740;2022-09-09T01:53:06;13.30;99.90
57833;DHT22;43667;53.036;6.740;2022-09-09T01:55:44;13.30;99.90
57833;DHT22;43667;53.036;6.740;2022-09-09T02:03:59;13.40;99.90
57833;DHT22;43667;53.036;6.740;2022-09-09T02:06:36;13.40;99.90
57833;DHT22;43667;53.036;6.740;2022-09-09T02:09:05;13.50;99.90
57833;DHT22;43667;53.036;6.740;2022-09-09T02:11:32;13.50;99.90
57833;DHT22;43667;53.036;6.740;2022-09-09T02:14:06;13.50;99.90
57833;DHT22;43667;53.036;6.740;2022-09-09T02:16:48;13.60;99.90
57833;DHT22;43667;53.036;6.740;2022-09-09T02:19:23;13.60;99.90
57833;DHT22;43667;53.036;6.740;2022-09-09T02:21:52;13.60;99.90
57833;DHT22;43667;53.036;6.740;2022-09-09T02:24:19;13.60;99.90
57833;DHT22;43667;53.036;6.740;2022-09-09T02:26:46;13.70;99.90
57833;DHT22;43667;53.036;6.740;2022-09-09T02:29:23;13.70;99.90
57833;DHT22;43667;53.036;6.740;2022-09-09T02:31:52;13.70;99.90
57833;DHT22;43667;53.036;6.740;2022-09-09T02:34:21;13.70;99.90
57833;DHT22;43667;53.036;6.740;2022-09-09T02:36:50;13.70;99.90
57833;DHT22;43667;53.036;6.740;2022-09-09T02:39:18;13.70;99.90
57833;DHT22;43667;53.036;6.740;2022-09-09T02:41:44;13.80;99.90
57833;DHT22;43667;53.036;6.740;2022-09-09T02:44:11;13.80;99.90
57833;DHT22;43667;53.036;6.740;2022-09-09T02:49:48;13.80;99.90
57833;DHT22;43667;53.036;6.740;2022-09-09T02:52:26;13.90;99.90
57833;DHT22;43667;53.036;6.740;2022-09-09T02:54:58;13.90;99.90
57833;DHT22;43667;53.036;6.740;2022-09-09T02:57:27;13.90;99.90
57833;DHT22;43667;53.036;6.740;2022-09-09T02:59:57;13.90;99.90
57833;DHT22;43667;53.036;6.740;2022-09-09T03:02:23;14.00;99.90
57833;DHT22;43667;53.036;6.740;2022-09-09T03:04:49;14.00;99.90
57833;DHT22;43667;53.036;6.740;2022-09-09T03:07:18;14.00;99.90
57833;DHT22;43667;53.036;6.740;2022-09-09T03:09:45;14.00;99.90
57833;DHT22;43667;53.036;6.740;2022-09-09T03:12:11;14.00;99.90
57833;DHT22;43667;53.036;6.740;2022-09-09T03:14:37;14.10;99.90
57833;DHT22;43667;53.036;6.740;2022-09-09T03:17:05;14.10;99.90
57833;DHT22;43667;53.036;6.740;2022-09-09T03:19:31;14.10;99.90
57833;DHT22;43667;53.036;6.740;2022-09-09T03:21:57;14.10;99.90
57833;DHT22;43667;53.036;6.740;2022-09-09T03:24:23;14.10;99.90
57833;DHT22;43667;53.036;6.740;2022-09-09T03:26:49;14.10;99.90
57833;DHT22;43667;53.036;6.740;2022-09-09T03:29:16;14.20;99.90
57833;DHT22;43667;53.036;6.740;2022-09-09T03:31:42;14.20;99.90
57833;DHT22;43667;53.036;6.740;2022-09-09T03:34:08;14.20;99.90
57833;DHT22;43667;53.036;6.740;2022-09-09T03:36:34;14.20;99.90
57833;DHT22;43667;53.036;6.740;2022-09-09T03:39:00;14.20;99.90
57833;DHT22;43667;53.036;6.740;2022-09-09T03:41:26;14.20;99.90
57833;DHT22;43667;53.036;6.740;2022-09-09T03:43:53;14.20;99.90
57833;DHT22;43667;53.036;6.740;2022-09-09T03:46:20;14.20;99.90
57833;DHT22;43667;53.036;6.740;2022-09-09T03:48:46;14.20;99.90
57833;DHT22;43667;53.036;6.740;2022-09-09T03:51:12;14.20;99.90
57833;DHT22;43667;53.036;6.740;2022-09-09T03:53:38;14.30;99.90
57833;DHT22;43667;53.036;6.740;2022-09-09T03:56:05;14.30;99.90
57833;DHT22;43667;53.036;6.740;2022-09-09T03:58:33;14.30;99.90
57833;DHT22;43667;53.036;6.740;2022-09-09T04:01:01;14.30;99.90
57833;DHT22;43667;53.036;6.740;2022-09-09T04:03:28;14.30;99.90
57833;DHT22;43667;53.036;6.740;2022-09-09T04:05:55;14.30;99.90
57833;DHT22;43667;53.036;6.740;2022-09-09T04:08:22;14.30;99.90
57833;DHT22;43667;53.036;6.740;2022-09-09T04:10:50;14.30;99.90
57833;DHT22;43667;53.036;6.740;2022-09-09T04:13:17;14.30;99.90
57833;DHT22;43667;53.036;6.740;2022-09-09T04:15:44;14.30;99.90
57833;DHT22;43667;53.036;6.740;2022-09-09T04:18:15;14.30;99.90
57833;DHT22;43667;53.036;6.740;2022-09-09T04:20:40;14.20;99.90
57833;DHT22;43667;53.036;6.740;2022-09-09T04:23:08;14.30;99.90
57833;DHT22;43667;53.036;6.740;2022-09-09T04:25:34;14.20;99.90
57833;DHT22;43667;53.036;6.740;2022-09-09T04:27:59;14.20;99.90
57833;DHT22;43667;53.036;6.740;2022-09-09T04:30:25;14.30;99.90
57833;DHT22;43667;53.036;6.740;2022-09-09T04:32:52;14.20;99.90
57833;DHT22;43667;53.036;6.740;2022-09-09T04:35:18;14.20;99.90
57833;DHT22;43667;53.036;6.740;2022-09-09T04:37:45;14.20;99.90
57833;DHT22;43667;53.036;6.740;2022-09-09T04:40:11;14.20;99.90
57833;DHT22;43667;53.036;6.740;2022-09-09T04:42:37;14.20;99.90
57833;DHT22;43667;53.036;6.740;2022-09-09T04:45:03;14.20;99.90
57833;DHT22;43667;53.036;6.740;2022-09-09T04:47:28;14.30;99.90
57833;DHT22;43667;53.036;6.740;2022-09-09T04:49:54;14.20;99.90
57833;DHT22;43667;53.036;6.740;2022-09-09T04:52:20;14.20;99.90
57833;DHT22;43667;53.036;6.740;2022-09-09T04:54:46;14.20;99.90
57833;DHT22;43667;53.036;6.740;2022-09-09T04:57:12;14.20;99.90
57833;DHT22;43667;53.036;6.740;2022-09-09T04:59:38;14.30;99.90
57833;DHT22;43667;53.036;6.740;2022-09-09T05:02:05;14.20;99.90
57833;DHT22;43667;53.036;6.740;2022-09-09T05:04:31;14.20;99.90
57833;DHT22;43667;53.036;6.740;2022-09-09T05:06:57;14.30;99.90
57833;DHT22;43667;53.036;6.740;2022-09-09T05:09:22;14.20;99.90
57833;DHT22;43667;53.036;6.740;2022-09-09T05:11:48;14.20;99.90
57833;DHT22;43667;53.036;6.740;2022-09-09T05:14:14;14.20;99.90
57833;DHT22;43667;53.036;6.740;2022-09-09T05:16:40;14.20;99.90
57833;DHT22;43667;53.036;6.740;2022-09-09T05:19:06;14.20;99.90
57833;DHT22;43667;53.036;6.740;2022-09-09T05:21:33;14.20;99.90
57833;DHT22;43667;53.036;6.740;2022-09-09T05:23:58;14.20;99.90
57833;DHT22;43667;53.036;6.740;2022-09-09T05:26:26;14.20;99.90
57833;DHT22;43667;53.036;6.740;2022-09-09T05:28:52;14.20;99.90
57833;DHT22;43667;53.036;6.740;2022-09-09T05:31:18;14.20;99.90
57833;DHT22;43667;53.036;6.740;2022-09-09T05:33:45;14.20;99.90
57833;DHT22;43667;53.036;6.740;2022-09-09T05:36:16;14.20;99.90
57833;DHT22;43667;53.036;6.740;2022-09-09T05:38:42;14.20;99.90
57833;DHT22;43667;53.036;6.740;2022-09-09T05:41:10;14.20;99.90
57833;DHT22;43667;53.036;6.740;2022-09-09T05:43:40;14.20;99.90
57833;DHT22;43667;53.036;6.740;2022-09-09T05:46:10;14.20;99.90
57833;DHT22;43667;53.036;6.740;2022-09-09T05:48:40;14.20;99.90
57833;DHT22;43667;53.036;6.740;2022-09-09T05:51:09;14.20;99.90
57833;DHT22;43667;53.036;6.740;2022-09-09T05:53:38;14.20;99.90
57833;DHT22;43667;53.036;6.740;2022-09-09T05:56:04;14.20;99.90
57833;DHT22;43667;53.036;6.740;2022-09-09T05:58:34;14.20;99.90
57833;DHT22;43667;53.036;6.740;2022-09-09T06:01:08;14.30;99.90
57833;DHT22;43667;53.036;6.740;2022-09-09T06:03:35;14.30;99.90
57833;DHT22;43667;53.036;6.740;2022-09-09T06:06:06;14.30;99.90
57833;DHT22;43667;53.036;6.740;2022-09-09T06:08:36;14.30;99.90
57833;DHT22;43667;53.036;6.740;2022-09-09T06:11:08;14.30;99.90
57833;DHT22;43667;53.036;6.740;2022-09-09T06:13:35;14.30;99.90
57833;DHT22;43667;53.036;6.740;2022-09-09T06:16:03;14.30;99.90
57833;DHT22;43667;53.036;6.740;2022-09-09T06:18:29;14.30;99.90
57833;DHT22;43667;53.036;6.740;2022-09-09T06:21:01;14.30;99.90
57833;DHT22;43667;53.036;6.740;2022-09-09T06:23:28;14.40;99.90
57833;DHT22;43667;53.036;6.740;2022-09-09T06:26:11;14.40;99.90
57833;DHT22;43667;53.036;6.740;2022-09-09T06:28:37;14.40;99.90
57833;DHT22;43667;53.036;6.740;2022-09-09T06:31:05;14.50;99.90
57833;DHT22;43667;53.036;6.740;2022-09-09T06:33:33;14.50;99.90
57833;DHT22;43667;53.036;6.740;2022-09-09T06:36:00;14.60;99.90
57833;DHT22;43667;53.036;6.740;2022-09-09T06:38:27;14.70;99.90
57833;DHT22;43667;53.036;6.740;2022-09-09T06:40:57;14.70;99.90
57833;DHT22;43667;53.036;6.740;2022-09-09T06:43:24;14.80;99.90
57833;DHT22;43667;53.036;6.740;2022-09-09T06:46:03;14.80;99.90
57833;DHT22;43667;53.036;6.740;2022-09-09T06:48:30;14.90;99.90
57833;DHT22;43667;53.036;6.740;2022-09-09T06:53:33;15.00;99.90
57833;DHT22;43667;53.036;6.740;2022-09-09T06:56:17;15.00;99.90
57833;DHT22;43667;53.036;6.740;2022-09-09T06:58:43;15.00;99.90
57833;DHT22;43667;53.036;6.740;2022-09-09T07:01:12;15.10;99.90
57833;DHT22;43667;53.036;6.740;2022-09-09T07:03:39;15.10;99.90
57833;DHT22;43667;53.036;6.740;2022-09-09T07:06:06;15.10;99.90
57833;DHT22;43667;53.036;6.740;2022-09-09T07:08:33;15.10;99.90
57833;DHT22;43667;53.036;6.740;2022-09-09T07:11:07;15.10;99.90
57833;DHT22;43667;53.036;6.740;2022-09-09T07:13:33;15.20;99.90
57833;DHT22;43667;53.036;6.740;2022-09-09T07:16:07;15.20;99.90
57833;DHT22;43667;53.036;6.740;2022-09-09T07:18:34;15.30;99.90
57833;DHT22;43667;53.036;6.740;2022-09-09T07:21:01;15.40;99.90
57833;DHT22;43667;53.036;6.740;2022-09-09T07:23:28;15.40;99.90
57833;DHT22;43667;53.036;6.740;2022-09-09T07:25:54;15.50;99.90
57833;DHT22;43667;53.036;6.740;2022-09-09T07:28:20;15.50;99.90
57833;DHT22;43667;53.036;6.740;2022-09-09T07:30:54;15.60;99.90
57833;DHT22;43667;53.036;6.740;2022-09-09T07:33:19;15.70;99.90
57833;DHT22;43667;53.036;6.740;2022-09-09T07:35:45;15.80;99.90
57833;DHT22;43667;53.036;6.740;2022-09-09T07:38:11;15.90;99.90
57833;DHT22;43667;53.036;6.740;2022-09-09T07:40:37;15.90;99.90
57833;DHT22;43667;53.036;6.740;2022-09-09T07:43:02;16.00;99.90
57833;DHT22;43667;53.036;6.740;2022-09-09T07:45:28;16.00;99.90
57833;DHT22;43667;53.036;6.740;2022-09-09T07:47:54;16.00;99.90
57833;DHT22;43667;53.036;6.740;2022-09-09T07:50:22;16.00;99.90
57833;DHT22;43667;53.036;6.740;2022-09-09T07:52:49;16.00;99.90
57833;DHT22;43667;53.036;6.740;2022-09-09T07:55:14;16.00;99.90
57833;DHT22;43667;53.036;6.740;2022-09-09T07:57:40;16.00;99.90
57833;DHT22;43667;53.036;6.740;2022-09-09T08:00:06;16.10;99.90
57833;DHT22;43667;53.036;6.740;2022-09-09T08:02:32;16.10;99.90
57833;DHT22;43667;53.036;6.740;2022-09-09T08:04:58;16.20;99.90
57833;DHT22;43667;53.036;6.740;2022-09-09T08:07:24;16.20;99.90
57833;DHT22;43667;53.036;6.740;2022-09-09T08:09:49;16.30;99.90
57833;DHT22;43667;53.036;6.740;2022-09-09T08:12:15;16.30;99.90
57833;DHT22;43667;53.036;6.740;2022-09-09T08:14:41;16.40;99.90
57833;DHT22;43667;53.036;6.740;2022-09-09T08:17:07;16.50;99.90
57833;DHT22;43667;53.036;6.740;2022-09-09T08:19:33;16.50;99.90
57833;DHT22;43667;53.036;6.740;2022-09-09T08:22:02;16.60;99.90
57833;DHT22;43667;53.036;6.740;2022-09-09T08:24:28;16.60;99.90
57833;DHT22;43667;53.036;6.740;2022-09-09T08:26:54;16.70;99.90
57833;DHT22;43667;53.036;6.740;2022-09-09T08:29:20;16.90;99.90
57833;DHT22;43667;53.036;6.740;2022-09-09T08:31:46;17.00;99.90
57833;DHT22;43667;53.036;6.740;2022-09-09T08:34:13;17.20;99.90
57833;DHT22;43667;53.036;6.740;2022-09-09T08:36:43;17.30;99.90
57833;DHT22;43667;53.036;6.740;2022-09-09T08:39:11;17.50;99.90
57833;DHT22;43667;53.036;6.740;2022-09-09T08:50:28;18.30;99.90
57833;DHT22;43667;53.036;6.740;2022-09-09T08:53:04;18.40;99.90
57833;DHT22;43667;53.036;6.740;2022-09-09T08:55:50;18.50;99.90
57833;DHT22;43667;53.036;6.740;2022-09-09T08:58:27;18.50;99.90
57833;DHT22;43667;53.036;6.740;2022-09-09T09:06:24;18.50;99.90
57833;DHT22;43667;53.036;6.740;2022-09-09T09:09:18;18.40;99.90
57833;DHT22;43667;53.036;6.740;2022-09-09T09:11:58;18.30;99.90
57833;DHT22;43667;53.036;6.740;2022-09-09T09:14:30;18.20;99.90
57833;DHT22;43667;53.036;6.740;2022-09-09T09:17:03;18.10;99.90
57833;DHT22;43667;53.036;6.740;2022-09-09T09:19:32;18.10;99.90
57833;DHT22;43667;53.036;6.740;2022-09-09T09:30:31;19.00;99.90
57833;DHT22;43667;53.036;6.740;2022-09-09T09:33:03;19.00;99.90
57833;DHT22;43667;53.036;6.740;2022-09-09T09:35:31;19.00;99.90
57833;DHT22;43667;53.036;6.740;2022-09-09T09:37:56;19.00;99.90
57833;DHT22;43667;53.036;6.740;2022-09-09T09:40:23;19.20;99.90
57833;DHT22;43667;53.036;6.740;2022-09-09T09:42:59;19.40;99.90
57833;DHT22;43667;53.036;6.740;2022-09-09T09:45:31;19.50;99.90
57833;DHT22;43667;53.036;6.740;2022-09-09T09:48:09;19.50;99.90
57833;DHT22;43667;53.036;6.740;2022-09-09T09:50:48;19.50;99.90
57833;DHT22;43667;53.036;6.740;2022-09-09T09:53:26;19.50;99.90
57833;DHT22;43667;53.036;6.740;2022-09-09T09:55:57;19.40;99.90
57833;DHT22;43667;53.036;6.740;2022-09-09T09:58:23;19.50;99.90
57833;DHT22;43667;53.036;6.740;2022-09-09T10:00:52;19.80;99.90
57833;DHT22;43667;53.036;6.740;2022-09-09T10:03:27;20.00;99.90
57833;DHT22;43667;53.036;6.740;2022-09-09T10:05:54;20.30;99.90
57833;DHT22;43667;53.036;6.740;2022-09-09T10:08:22;20.60;99.90
57833;DHT22;43667;53.036;6.740;2022-09-09T10:13:45;20.90;99.90
57833;DHT22;43667;53.036;6.740;2022-09-09T10:16:37;21.00;99.90
57833;DHT22;43667;53.036;6.740;2022-09-09T10:19:15;21.10;99.90
57833;DHT22;43667;53.036;6.740;2022-09-09T10:22:05;21.20;99.90
57833;DHT22;43667;53.036;6.740;2022-09-09T10:30:15;21.80;99.90
57833;DHT22;43667;53.036;6.740;2022-09-09T10:33:07;21.90;99.90
57833;DHT22;43667;53.036;6.740;2022-09-09T10:38:30;21.60;99.90
57833;DHT22;43667;53.036;6.740;2022-09-09T10:43:39;21.40;99.90
57833;DHT22;43667;53.036;6.740;2022-09-09T10:54:31;21.30;99.90
57833;DHT22;43667;53.036;6.740;2022-09-09T10:57:03;21.20;99.90
57833;DHT22;43667;53.036;6.740;2022-09-09T10:59:33;21.10;99.90
57833;DHT22;43667;53.036;6.740;2022-09-09T11:02:35;21.00;99.90
57833;DHT22;43667;53.036;6.740;2022-09-09T11:05:12;20.80;99.90
57833;DHT22;43667;53.036;6.740;2022-09-09T11:07:44;20.70;99.90
57833;DHT22;43667;53.036;6.740;2022-09-09T11:12:57;20.80;99.90
57833;DHT22;43667;53.036;6.740;2022-09-09T11:16:04;21.00;99.90
57833;DHT22;43667;53.036;6.740;2022-09-09T11:18:22;21.30;99.90
57833;DHT22;43667;53.036;6.740;2022-09-09T11:20:52;21.40;99.90
57833;DHT22;43667;53.036;6.740;2022-09-09T11:23:25;21.40;99.90
57833;DHT22;43667;53.036;6.740;2022-09-09T11:25:59;21.20;99.90
57833;DHT22;43667;53.036;6.740;2022-09-09T11:34:31;21.70;99.90
57833;DHT22;43667;53.036;6.740;2022-09-09T11:37:01;22.10;99.90
57833;DHT22;43667;53.036;6.740;2022-09-09T11:40:08;22.50;99.90
57833;DHT22;43667;53.036;6.740;2022-09-09T11:42:35;22.50;99.90
57833;DHT22;43667;53.036;6.740;2022-09-09T11:45:15;22.30;99.90
57833;DHT22;43667;53.036;6.740;2022-09-09T11:47:55;22.10;99.90
57833;DHT22;43667;53.036;6.740;2022-09-09T11:52:48;21.40;99.90
57833;DHT22;43667;53.036;6.740;2022-09-09T11:55:32;21.20;99.90
57833;DHT22;43667;53.036;6.740;2022-09-09T12:00:41;21.30;99.90
57833;DHT22;43667;53.036;6.740;2022-09-09T12:03:47;21.60;99.90
57833;DHT22;43667;53.036;6.740;2022-09-09T12:06:27;21.90;99.90
57833;DHT22;43667;53.036;6.740;2022-09-09T12:11:39;22.30;99.90
57833;DHT22;43667;53.036;6.740;2022-09-09T12:14:17;22.30;99.90
57833;DHT22;43667;53.036;6.740;2022-09-09T12:16:44;22.20;99.90
57833;DHT22;43667;53.036;6.740;2022-09-09T12:19:19;22.30;99.90
57833;DHT22;43667;53.036;6.740;2022-09-09T12:21:54;22.40;99.90
57833;DHT22;43667;53.036;6.740;2022-09-09T12:24:40;22.60;99.90
57833;DHT22;43667;53.036;6.740;2022-09-09T12:32:11;22.90;99.60
57833;DHT22;43667;53.036;6.740;2022-09-09T12:34:55;23.00;99.80
57833;DHT22;43667;53.036;6.740;2022-09-09T12:37:47;23.10;97.40
57833;DHT22;43667;53.036;6.740;2022-09-09T12:40:22;23.20;97.30
57833;DHT22;43667;53.036;6.740;2022-09-09T12:42:48;23.40;98.00
57833;DHT22;43667;53.036;6.740;2022-09-09T12:45:19;23.50;95.30
57833;DHT22;43667;53.036;6.740;2022-09-09T12:47:53;23.60;94.50
57833;DHT22;43667;53.036;6.740;2022-09-09T12:50:24;23.60;93.60
57833;DHT22;43667;53.036;6.740;2022-09-09T12:52:59;23.40;93.30
57833;DHT22;43667;53.036;6.740;2022-09-09T12:55:32;23.20;94.80
57833;DHT22;43667;53.036;6.740;2022-09-09T12:58:00;23.20;94.70
57833;DHT22;43667;53.036;6.740;2022-09-09T13:00:29;23.20;95.10
57833;DHT22;43667;53.036;6.740;2022-09-09T13:03:01;23.30;95.00
57833;DHT22;43667;53.036;6.740;2022-09-09T13:05:28;23.30;95.50
57833;DHT22;43667;53.036;6.740;2022-09-09T13:08:04;23.50;96.40
57833;DHT22;43667;53.036;6.740;2022-09-09T13:10:35;23.60;93.40
57833;DHT22;43667;53.036;6.740;2022-09-09T13:13:01;23.60;93.50
57833;DHT22;43667;53.036;6.740;2022-09-09T13:15:29;23.70;94.20
57833;DHT22;43667;53.036;6.740;2022-09-09T13:18:01;23.70;94.60
57833;DHT22;43667;53.036;6.740;2022-09-09T13:20:29;23.70;92.80
57833;DHT22;43667;53.036;6.740;2022-09-09T13:22:56;23.60;93.40
57833;DHT22;43667;53.036;6.740;2022-09-09T13:25:29;23.50;93.20
57833;DHT22;43667;53.036;6.740;2022-09-09T13:28:04;23.20;91.50
57833;DHT22;43667;53.036;6.740;2022-09-09T13:30:37;22.80;93.80
57833;DHT22;43667;53.036;6.740;2022-09-09T13:35:55;22.20;96.50
57833;DHT22;43667;53.036;6.740;2022-09-09T13:38:21;21.90;99.70
57833;DHT22;43667;53.036;6.740;2022-09-09T13:40:58;21.50;99.90
57833;DHT22;43667;53.036;6.740;2022-09-09T13:43:27;21.30;99.90
57833;DHT22;43667;53.036;6.740;2022-09-09T13:45:55;21.00;99.90
57833;DHT22;43667;53.036;6.740;2022-09-09T13:48:21;21.10;99.90
57833;DHT22;43667;53.036;6.740;2022-09-09T13:50:59;21.20;99.90
57833;DHT22;43667;53.036;6.740;2022-09-09T13:53:25;21.40;99.90
57833;DHT22;43667;53.036;6.740;2022-09-09T13:55:50;21.60;99.90
57833;DHT22;43667;53.036;6.740;2022-09-09T13:58:17;21.90;99.90
57833;DHT22;43667;53.036;6.740;2022-09-09T14:00:44;22.20;99.90
57833;DHT22;43667;53.036;6.740;2022-09-09T14:03:10;22.40;99.90
57833;DHT22;43667;53.036;6.740;2022-09-09T14:05:36;22.50;99.90
57833;DHT22;43667;53.036;6.740;2022-09-09T14:08:07;22.40;99.80
57833;DHT22;43667;53.036;6.740;2022-09-09T14:10:33;22.20;98.60
57833;DHT22;43667;53.036;6.740;2022-09-09T14:13:02;22.10;99.90
57833;DHT22;43667;53.036;6.740;2022-09-09T14:15:28;22.00;99.90
57833;DHT22;43667;53.036;6.740;2022-09-09T14:17:54;21.90;99.90
57833;DHT22;43667;53.036;6.740;2022-09-09T14:20:20;21.80;99.90
57833;DHT22;43667;53.036;6.740;2022-09-09T14:22:46;21.80;99.90
57833;DHT22;43667;53.036;6.740;2022-09-09T14:25:11;21.70;99.90
57833;DHT22;43667;53.036;6.740;2022-09-09T14:27:39;21.50;99.90
57833;DHT22;43667;53.036;6.740;2022-09-09T14:30:05;21.50;99.90
57833;DHT22;43667;53.036;6.740;2022-09-09T14:32:31;21.50;99.90
57833;DHT22;43667;53.036;6.740;2022-09-09T14:34:58;21.60;99.90
57833;DHT22;43667;53.036;6.740;2022-09-09T14:37:24;21.80;99.90
57833;DHT22;43667;53.036;6.740;2022-09-09T14:39:49;22.10;99.90
57833;DHT22;43667;53.036;6.740;2022-09-09T14:42:16;22.40;99.90
57833;DHT22;43667;53.036;6.740;2022-09-09T14:44:42;22.60;99.20
57833;DHT22;43667;53.036;6.740;2022-09-09T14:47:08;22.60;98.20
57833;DHT22;43667;53.036;6.740;2022-09-09T14:49:37;22.50;96.80
57833;DHT22;43667;53.036;6.740;2022-09-09T14:52:03;22.40;97.20
57833;DHT22;43667;53.036;6.740;2022-09-09T14:54:29;22.20;96.60
57833;DHT22;43667;53.036;6.740;2022-09-09T14:56:55;22.10;98.20
57833;DHT22;43667;53.036;6.740;2022-09-09T14:59:22;22.10;98.40
57833;DHT22;43667;53.036;6.740;2022-09-09T15:01:48;22.00;97.90
57833;DHT22;43667;53.036;6.740;2022-09-09T15:04:14;22.00;98.10
57833;DHT22;43667;53.036;6.740;2022-09-09T15:06:43;22.20;98.80
57833;DHT22;43667;53.036;6.740;2022-09-09T15:09:12;22.40;98.50
57833;DHT22;43667;53.036;6.740;2022-09-09T15:11:38;22.70;98.40
57833;DHT22;43667;53.036;6.740;2022-09-09T15:14:05;23.20;98.80
57833;DHT22;43667;53.036;6.740;2022-09-09T15:16:31;23.60;95.90
57833;DHT22;43667;53.036;6.740;2022-09-09T15:18:59;23.80;94.80
57833;DHT22;43667;53.036;6.740;2022-09-09T15:21:36;24.10;94.90
57833;DHT22;43667;53.036;6.740;2022-09-09T15:24:02;24.50;93.30
57833;DHT22;43667;53.036;6.740;2022-09-09T15:26:28;24.90;92.90
57833;DHT22;43667;53.036;6.740;2022-09-09T15:28:55;25.20;90.90
57833;DHT22;43667;53.036;6.740;2022-09-09T15:31:26;25.40;85.70
57833;DHT22;43667;53.036;6.740;2022-09-09T15:33:57;25.50;83.00
57833;DHT22;43667;53.036;6.740;2022-09-09T15:36:47;25.60;85.00
57833;DHT22;43667;53.036;6.740;2022-09-09T15:39:15;25.90;87.70
57833;DHT22;43667;53.036;6.740;2022-09-09T15:41:42;26.30;83.90
57833;DHT22;43667;53.036;6.740;2022-09-09T15:44:09;26.50;84.40
57833;DHT22;43667;53.036;6.740;2022-09-09T15:49:10;26.70;77.60
57833;DHT22;43667;53.036;6.740;2022-09-09T15:51:38;26.80;73.60
57833;DHT22;43667;53.036;6.740;2022-09-09T15:54:04;26.90;74.80
57833;DHT22;43667;53.036;6.740;2022-09-09T15:56:30;27.00;72.00
57833;DHT22;43667;53.036;6.740;2022-09-09T15:58:56;26.80;71.70
57833;DHT22;43667;53.036;6.740;2022-09-09T16:01:23;26.20;71.10
57833;DHT22;43667;53.036;6.740;2022-09-09T16:03:49;25.40;74.10
57833;DHT22;43667;53.036;6.740;2022-09-09T16:06:18;24.90;80.40
57833;DHT22;43667;53.036;6.740;2022-09-09T16:08:48;24.40;82.90
57833;DHT22;43667;53.036;6.740;2022-09-09T16:11:21;24.00;88.40
57833;DHT22;43667;53.036;6.740;2022-09-09T16:13:49;23.70;92.80
57833;DHT22;43667;53.036;6.740;2022-09-09T16:16:18;23.40;95.00
57833;DHT22;43667;53.036;6.740;2022-09-09T16:18:53;23.10;96.30
57833;DHT22;43667;53.036;6.740;2022-09-09T16:21:26;22.90;96.90
57833;DHT22;43667;53.036;6.740;2022-09-09T16:23:55;22.60;97.70
57833;DHT22;43667;53.036;6.740;2022-09-09T16:26:22;22.30;97.90
57833;DHT22;43667;53.036;6.740;2022-09-09T16:28:48;22.10;99.40
57833;DHT22;43667;53.036;6.740;2022-09-09T16:31:16;21.90;99.90
57833;DHT22;43667;53.036;6.740;2022-09-09T16:33:43;21.70;99.90
57833;DHT22;43667;53.036;6.740;2022-09-09T16:36:15;21.60;99.90
57833;DHT22;43667;53.036;6.740;2022-09-09T16:38:41;21.50;99.90
57833;DHT22;43667;53.036;6.740;2022-09-09T16:41:07;21.40;99.90
57833;DHT22;43667;53.036;6.740;2022-09-09T16:43:34;21.30;99.90
57833;DHT22;43667;53.036;6.740;2022-09-09T16:46:01;21.20;99.90
57833;DHT22;43667;53.036;6.740;2022-09-09T16:48:31;21.00;99.90
57833;DHT22;43667;53.036;6.740;2022-09-09T16:51:07;20.90;99.90
57833;DHT22;43667;53.036;6.740;2022-09-09T16:53:36;20.80;99.90
57833;DHT22;43667;53.036;6.740;2022-09-09T16:56:06;20.70;99.90
57833;DHT22;43667;53.036;6.740;2022-09-09T16:58:32;20.60;99.90
57833;DHT22;43667;53.036;6.740;2022-09-09T17:00:58;20.50;99.90
57833;DHT22;43667;53.036;6.740;2022-09-09T17:03:24;20.50;99.90
57833;DHT22;43667;53.036;6.740;2022-09-09T17:05:50;20.40;99.90
57833;DHT22;43667;53.036;6.740;2022-09-09T17:08:16;20.40;99.90
57833;DHT22;43667;53.036;6.740;2022-09-09T17:10:42;20.30;99.90
57833;DHT22;43667;53.036;6.740;2022-09-09T17:13:07;20.30;99.90
57833;DHT22;43667;53.036;6.740;2022-09-09T17:15:36;20.20;99.90
57833;DHT22;43667;53.036;6.740;2022-09-09T17:18:03;20.20;99.90
57833;DHT22;43667;53.036;6.740;2022-09-09T17:20:29;20.10;99.90
57833;DHT22;43667;53.036;6.740;2022-09-09T17:22:55;20.10;99.90
57833;DHT22;43667;53.036;6.740;2022-09-09T17:25:20;20.00;99.90
57833;DHT22;43667;53.036;6.740;2022-09-09T17:27:47;20.00;99.90
57833;DHT22;43667;53.036;6.740;2022-09-09T17:30:13;19.90;99.90
57833;DHT22;43667;53.036;6.740;2022-09-09T17:32:38;19.80;99.90
57833;DHT22;43667;53.036;6.740;2022-09-09T17:35:04;19.70;99.90
57833;DHT22;43667;53.036;6.740;2022-09-09T17:37:31;19.60;99.90
57833;DHT22;43667;53.036;6.740;2022-09-09T17:39:56;19.60;99.90
57833;DHT22;43667;53.036;6.740;2022-09-09T17:42:23;19.50;99.90